BAW009 EGLL-OBBI
Flight info
| Callsign | BAW009 |
|---|---|
| Flight time | 6h 6m |
| Altitude | 35000 |
| Route | DET1J DET L6 DVR UL9 KONAN DCT KOK DCT REMBA DCT SPI DCT ULNOK DCT VIBOM/N0489F370 DCT NOMBO DCT RIDAR DCT RADIZ DCT KUSIB DCT VABEK UL603 OLOTA DCT RUGAS DCT RIKSO/N0482F390 UP14 ZAFLE DCT TOMBI DCT SAFTA L324 GENIV DCT KARIK B411 DEESA Y415 TAMRO N318 NADEN/N0468F210 N318 LADNA LADNA1 |
| Aircraft | B742/H-SDFHIRWXY/L |
Departure
| Time | 2026-05-08 10:07 |
|---|---|
| Airport | London Heathrow Airport (EGLL) |
Arrival
| Time | 2026-05-08 16:13 |
|---|---|
| Airport | Bahrain International Airport (OBBI) |
| Time | Latitude | Longitude | Altitude | Speed | Heading |
|---|---|---|---|---|---|
| 2026-05-08 09:40 | 51.47343 | -0.44706 | 93 ft | 0 kts | 270° |
| 2026-05-08 09:49 | 51.47343 | -0.44704 | 94 ft | 1 kts | 270° |
| 2026-05-08 09:49 | 51.47343 | -0.44681 | 93 ft | 2 kts | 270° |
| 2026-05-08 09:50 | 51.47343 | -0.44657 | 94 ft | 2 kts | 270° |
| 2026-05-08 09:50 | 51.47343 | -0.44633 | 93 ft | 2 kts | 276° |
| 2026-05-08 09:50 | 51.47340 | -0.44610 | 93 ft | 2 kts | 295° |
| 2026-05-08 09:50 | 51.47332 | -0.44589 | 93 ft | 2 kts | 309° |
| 2026-05-08 09:51 | 51.47322 | -0.44572 | 94 ft | 2 kts | 323° |
| 2026-05-08 09:51 | 51.47309 | -0.44560 | 94 ft | 2 kts | 338° |
| 2026-05-08 09:51 | 51.47294 | -0.44554 | 94 ft | 2 kts | 353° |
| 2026-05-08 09:51 | 51.47286 | -0.44553 | 94 ft | 1 kts | 1° |
| 2026-05-08 09:52 | 51.47284 | -0.44553 | 94 ft | 0 kts | 0° |
| 2026-05-08 09:57 | 51.47307 | -0.44553 | 93 ft | 7 kts | 360° |
| 2026-05-08 09:57 | 51.47359 | -0.44554 | 93 ft | 14 kts | 0° |
| 2026-05-08 09:57 | 51.47495 | -0.44523 | 93 ft | 12 kts | 53° |
| 2026-05-08 09:58 | 51.47500 | -0.44398 | 93 ft | 17 kts | 91° |
| 2026-05-08 09:58 | 51.47502 | -0.44177 | 94 ft | 20 kts | 90° |
| 2026-05-08 09:58 | 51.47480 | -0.44058 | 93 ft | 6 kts | 169° |
| 2026-05-08 09:58 | 51.47384 | -0.44057 | 94 ft | 21 kts | 180° |
| 2026-05-08 09:59 | 51.47178 | -0.44055 | 94 ft | 35 kts | 179° |
| 2026-05-08 09:59 | 51.46909 | -0.44051 | 94 ft | 38 kts | 180° |
| 2026-05-08 09:59 | 51.46757 | -0.44123 | 94 ft | 16 kts | 259° |
| 2026-05-08 09:59 | 51.46753 | -0.44309 | 93 ft | 19 kts | 271° |
| 2026-05-08 10:00 | 51.46755 | -0.44585 | 93 ft | 28 kts | 270° |
| 2026-05-08 10:00 | 51.46752 | -0.44807 | 94 ft | 30 kts | 270° |
| 2026-05-08 10:00 | 51.46750 | -0.45238 | 93 ft | 26 kts | 270° |
| 2026-05-08 10:00 | 51.46749 | -0.45524 | 93 ft | 26 kts | 270° |
| 2026-05-08 10:01 | 51.46747 | -0.45827 | 93 ft | 26 kts | 269° |
| 2026-05-08 10:01 | 51.46748 | -0.46123 | 94 ft | 27 kts | 270° |
| 2026-05-08 10:01 | 51.46746 | -0.46449 | 94 ft | 30 kts | 270° |
| 2026-05-08 10:01 | 51.46747 | -0.46809 | 94 ft | 33 kts | 269° |
| 2026-05-08 10:02 | 51.46746 | -0.47157 | 94 ft | 28 kts | 270° |
| 2026-05-08 10:02 | 51.46745 | -0.47462 | 94 ft | 26 kts | 270° |
| 2026-05-08 10:02 | 51.46744 | -0.47742 | 93 ft | 23 kts | 270° |
| 2026-05-08 10:02 | 51.46743 | -0.48000 | 94 ft | 22 kts | 270° |
| 2026-05-08 10:03 | 51.46742 | -0.48239 | 93 ft | 20 kts | 270° |
| 2026-05-08 10:03 | 51.46741 | -0.48497 | 94 ft | 25 kts | 270° |
| 2026-05-08 10:03 | 51.46741 | -0.48550 | 93 ft | 0 kts | 269° |
| 2026-05-08 10:03 | 51.46741 | -0.48625 | 94 ft | 15 kts | 270° |
| 2026-05-08 10:04 | 51.46717 | -0.48742 | 93 ft | 7 kts | 205° |
| 2026-05-08 10:04 | 51.46653 | -0.48749 | 94 ft | 8 kts | 185° |
| 2026-05-08 10:04 | 51.46638 | -0.48752 | 94 ft | 0 kts | 189° |
| 2026-05-08 10:05 | 51.46594 | -0.48771 | 93 ft | 15 kts | 199° |
| 2026-05-08 10:05 | 51.46479 | -0.48704 | 94 ft | 22 kts | 109° |
| 2026-05-08 10:05 | 51.46478 | -0.48524 | 94 ft | 0 kts | 89° |
| 2026-05-08 10:06 | 51.46478 | -0.48478 | 94 ft | 26 kts | 90° |
| 2026-05-08 10:06 | 51.46480 | -0.47704 | 94 ft | 111 kts | 90° |
| 2026-05-08 10:06 | 51.46488 | -0.46095 | 99 ft | 176 kts | 90° |
| 2026-05-08 10:07 | 51.46511 | -0.43950 | 566 ft | 207 kts | 90° |
| 2026-05-08 10:07 | 51.46522 | -0.41552 | 1279 ft | 226 kts | 97° |
| 2026-05-08 10:07 | 51.45952 | -0.39232 | 1957 ft | 232 kts | 130° |
| 2026-05-08 10:07 | 51.44879 | -0.37259 | 2573 ft | 245 kts | 125° |
| 2026-05-08 10:08 | 51.44039 | -0.34864 | 3210 ft | 248 kts | 113° |
| 2026-05-08 10:08 | 51.43446 | -0.32234 | 3667 ft | 258 kts | 107° |
| 2026-05-08 10:08 | 51.42980 | -0.29531 | 4171 ft | 252 kts | 105° |
| 2026-05-08 10:08 | 51.42578 | -0.26850 | 4549 ft | 255 kts | 103° |
| 2026-05-08 10:09 | 51.42187 | -0.24060 | 5081 ft | 259 kts | 103° |
| 2026-05-08 10:09 | 51.41803 | -0.21272 | 5662 ft | 260 kts | 103° |
| 2026-05-08 10:09 | 51.41420 | -0.18476 | 6176 ft | 263 kts | 103° |
| 2026-05-08 10:09 | 51.41018 | -0.15549 | 6544 ft | 273 kts | 103° |
| 2026-05-08 10:10 | 51.40611 | -0.12588 | 7070 ft | 276 kts | 103° |
| 2026-05-08 10:10 | 51.40199 | -0.09594 | 7638 ft | 278 kts | 103° |
| 2026-05-08 10:10 | 51.39781 | -0.06568 | 8173 ft | 280 kts | 103° |
| 2026-05-08 10:10 | 51.39358 | -0.03509 | 8684 ft | 284 kts | 103° |
| 2026-05-08 10:11 | 51.38925 | -0.00381 | 9204 ft | 286 kts | 103° |
| 2026-05-08 10:11 | 51.38499 | 0.02690 | 9723 ft | 288 kts | 103° |
| 2026-05-08 10:11 | 51.38201 | 0.04831 | 10030 ft | 291 kts | 103° |
| 2026-05-08 10:11 | 51.37624 | 0.08974 | 10727 ft | 293 kts | 103° |
| 2026-05-08 10:12 | 51.37190 | 0.12080 | 11232 ft | 294 kts | 103° |
| 2026-05-08 10:12 | 51.36750 | 0.15223 | 11712 ft | 296 kts | 103° |
| 2026-05-08 10:12 | 51.36297 | 0.18461 | 12180 ft | 298 kts | 103° |
| 2026-05-08 10:12 | 51.35843 | 0.21692 | 12653 ft | 299 kts | 103° |
| 2026-05-08 10:13 | 51.35382 | 0.24966 | 12991 ft | 306 kts | 103° |
| 2026-05-08 10:13 | 51.34901 | 0.28370 | 13253 ft | 316 kts | 103° |
| 2026-05-08 10:13 | 51.34410 | 0.31839 | 13509 ft | 327 kts | 103° |
| 2026-05-08 10:13 | 51.33901 | 0.35435 | 13776 ft | 337 kts | 103° |
| 2026-05-08 10:14 | 51.33371 | 0.39163 | 14028 ft | 349 kts | 103° |
| 2026-05-08 10:14 | 51.32816 | 0.43064 | 14297 ft | 360 kts | 103° |
| 2026-05-08 10:14 | 51.32253 | 0.47011 | 14571 ft | 372 kts | 103° |
| 2026-05-08 10:14 | 51.31662 | 0.51151 | 14828 ft | 384 kts | 103° |
| 2026-05-08 10:15 | 51.31054 | 0.55400 | 15099 ft | 396 kts | 103° |
| 2026-05-08 10:15 | 51.30425 | 0.59765 | 15355 ft | 408 kts | 104° |
| 2026-05-08 10:15 | 51.29688 | 0.64160 | 15928 ft | 410 kts | 107° |
| 2026-05-08 10:15 | 51.28872 | 0.68542 | 16574 ft | 412 kts | 108° |
| 2026-05-08 10:16 | 51.28037 | 0.72866 | 17342 ft | 408 kts | 108° |
| 2026-05-08 10:16 | 51.27217 | 0.77159 | 18289 ft | 400 kts | 108° |
| 2026-05-08 10:16 | 51.26421 | 0.81399 | 18757 ft | 405 kts | 108° |
| 2026-05-08 10:16 | 51.25606 | 0.85796 | 19174 ft | 410 kts | 108° |
| 2026-05-08 10:17 | 51.24790 | 0.90217 | 19678 ft | 414 kts | 107° |
| 2026-05-08 10:17 | 51.23974 | 0.94645 | 20174 ft | 417 kts | 107° |
| 2026-05-08 10:17 | 51.23154 | 0.99079 | 20670 ft | 420 kts | 107° |
| 2026-05-08 10:17 | 51.22318 | 1.03599 | 21147 ft | 424 kts | 108° |
| 2026-05-08 10:18 | 51.21482 | 1.08103 | 21614 ft | 427 kts | 107° |
| 2026-05-08 10:18 | 51.20638 | 1.12643 | 22083 ft | 430 kts | 107° |
| 2026-05-08 10:18 | 51.20072 | 1.15678 | 22390 ft | 432 kts | 107° |
| 2026-05-08 10:18 | 51.18916 | 1.21863 | 23008 ft | 436 kts | 107° |
| 2026-05-08 10:19 | 51.18044 | 1.26521 | 23447 ft | 439 kts | 107° |
| 2026-05-08 10:19 | 51.17168 | 1.31190 | 23882 ft | 442 kts | 107° |
| 2026-05-08 10:19 | 51.16339 | 1.35965 | 24301 ft | 445 kts | 101° |
| 2026-05-08 10:20 | 51.15691 | 1.45810 | 25133 ft | 451 kts | 94° |
| 2026-05-08 10:20 | 51.15497 | 1.50805 | 25540 ft | 454 kts | 94° |
| 2026-05-08 10:20 | 51.15299 | 1.55811 | 25939 ft | 456 kts | 94° |
| 2026-05-08 10:20 | 51.15081 | 1.60923 | 26309 ft | 459 kts | 94° |
| 2026-05-08 10:21 | 51.14854 | 1.65935 | 26676 ft | 462 kts | 95° |
| 2026-05-08 10:21 | 51.14589 | 1.71082 | 27061 ft | 464 kts | 96° |
| 2026-05-08 10:21 | 51.14308 | 1.76228 | 27422 ft | 466 kts | 96° |
| 2026-05-08 10:21 | 51.14028 | 1.81407 | 27782 ft | 468 kts | 96° |
| 2026-05-08 10:22 | 51.13762 | 1.86445 | 28126 ft | 470 kts | 96° |
| 2026-05-08 10:22 | 51.13494 | 1.91596 | 28478 ft | 472 kts | 96° |
| 2026-05-08 10:22 | 51.13229 | 1.96732 | 28837 ft | 473 kts | 96° |
| 2026-05-08 10:22 | 51.12991 | 2.01918 | 29151 ft | 474 kts | 94° |
| 2026-05-08 10:23 | 51.12759 | 2.07201 | 29451 ft | 476 kts | 96° |
| 2026-05-08 10:23 | 51.12474 | 2.12431 | 29749 ft | 478 kts | 96° |
| 2026-05-08 10:23 | 51.12175 | 2.17704 | 30047 ft | 480 kts | 96° |
| 2026-05-08 10:23 | 51.11874 | 2.23019 | 30331 ft | 482 kts | 96° |
| 2026-05-08 10:24 | 51.11577 | 2.28343 | 30608 ft | 484 kts | 96° |
| 2026-05-08 10:24 | 51.11281 | 2.33703 | 30871 ft | 487 kts | 96° |
| 2026-05-08 10:24 | 51.10986 | 2.39069 | 31117 ft | 489 kts | 96° |
| 2026-05-08 10:24 | 51.10689 | 2.44448 | 31341 ft | 491 kts | 96° |
| 2026-05-08 10:25 | 51.10384 | 2.49936 | 31571 ft | 493 kts | 96° |
| 2026-05-08 10:25 | 51.10083 | 2.55332 | 31795 ft | 495 kts | 95° |
| 2026-05-08 10:25 | 51.09775 | 2.60782 | 32012 ft | 497 kts | 95° |
| 2026-05-08 10:25 | 51.09328 | 2.66273 | 32199 ft | 499 kts | 103° |
| 2026-05-08 10:26 | 51.08493 | 2.71661 | 32406 ft | 500 kts | 107° |
| 2026-05-08 10:26 | 51.07508 | 2.76931 | 32625 ft | 501 kts | 108° |
| 2026-05-08 10:26 | 51.06483 | 2.82208 | 32826 ft | 504 kts | 108° |
| 2026-05-08 10:26 | 51.05454 | 2.87556 | 33030 ft | 506 kts | 108° |
| 2026-05-08 10:27 | 51.04446 | 2.92904 | 33247 ft | 507 kts | 108° |
| 2026-05-08 10:27 | 51.03441 | 2.98321 | 33446 ft | 508 kts | 107° |
| 2026-05-08 10:27 | 51.02443 | 3.03749 | 33615 ft | 510 kts | 107° |
| 2026-05-08 10:27 | 51.01458 | 3.09130 | 33751 ft | 511 kts | 107° |
| 2026-05-08 10:28 | 51.00463 | 3.14559 | 33856 ft | 513 kts | 107° |
| 2026-05-08 10:28 | 50.98461 | 3.25443 | 34025 ft | 515 kts | 107° |
| 2026-05-08 10:29 | 50.96457 | 3.36272 | 34121 ft | 517 kts | 107° |
| 2026-05-08 10:29 | 50.94408 | 3.47274 | 34204 ft | 518 kts | 107° |
| 2026-05-08 10:30 | 50.92359 | 3.58204 | 34271 ft | 518 kts | 107° |
| 2026-05-08 10:30 | 50.90292 | 3.69117 | 34303 ft | 518 kts | 109° |
| 2026-05-08 10:31 | 50.88144 | 3.80094 | 34299 ft | 519 kts | 108° |
| 2026-05-08 10:31 | 50.86019 | 3.91078 | 34278 ft | 520 kts | 108° |
| 2026-05-08 10:32 | 50.83921 | 4.01989 | 34488 ft | 515 kts | 108° |
| 2026-05-08 10:32 | 50.82887 | 4.07368 | 34794 ft | 510 kts | 108° |
| 2026-05-08 10:32 | 50.81848 | 4.12749 | 34990 ft | 509 kts | 108° |
| 2026-05-08 10:33 | 50.79769 | 4.23459 | 35078 ft | 503 kts | 108° |
| 2026-05-08 10:33 | 50.77753 | 4.33798 | 35088 ft | 492 kts | 108° |
| 2026-05-08 10:34 | 50.75715 | 4.44179 | 35096 ft | 495 kts | 108° |
| 2026-05-08 10:34 | 50.73674 | 4.54519 | 35089 ft | 501 kts | 108° |
| 2026-05-08 10:35 | 50.71586 | 4.65050 | 35096 ft | 501 kts | 109° |
| 2026-05-08 10:35 | 50.69450 | 4.75499 | 35092 ft | 498 kts | 110° |
| 2026-05-08 10:36 | 50.67323 | 4.85877 | 35085 ft | 496 kts | 109° |
| 2026-05-08 10:36 | 50.65200 | 4.96320 | 35092 ft | 497 kts | 109° |
| 2026-05-08 10:37 | 50.63087 | 5.06664 | 35080 ft | 497 kts | 109° |
| 2026-05-08 10:37 | 50.60954 | 5.17054 | 35080 ft | 497 kts | 109° |
| 2026-05-08 10:38 | 50.58812 | 5.27438 | 35085 ft | 498 kts | 110° |
| 2026-05-08 10:38 | 50.56667 | 5.37783 | 35085 ft | 499 kts | 110° |
| 2026-05-08 10:39 | 50.54502 | 5.48170 | 35085 ft | 498 kts | 110° |
| 2026-05-08 10:39 | 50.52324 | 5.58568 | 35084 ft | 498 kts | 110° |
| 2026-05-08 10:40 | 50.50101 | 5.68853 | 35075 ft | 498 kts | 112° |
| 2026-05-08 10:40 | 50.47741 | 5.79084 | 35075 ft | 498 kts | 112° |
| 2026-05-08 10:41 | 50.45393 | 5.89357 | 35073 ft | 498 kts | 112° |
| 2026-05-08 10:41 | 50.43067 | 5.99639 | 35065 ft | 497 kts | 111° |
| 2026-05-08 10:42 | 50.40754 | 6.09855 | 35061 ft | 498 kts | 111° |
| 2026-05-08 10:42 | 50.38415 | 6.20137 | 35067 ft | 499 kts | 111° |
| 2026-05-08 10:43 | 50.36073 | 6.30387 | 35064 ft | 498 kts | 111° |
| 2026-05-08 10:43 | 50.33738 | 6.40552 | 35042 ft | 497 kts | 111° |
| 2026-05-08 10:44 | 50.31367 | 6.50824 | 35062 ft | 500 kts | 111° |
| 2026-05-08 10:44 | 50.28985 | 6.61094 | 35065 ft | 500 kts | 111° |
| 2026-05-08 10:45 | 50.26603 | 6.71207 | 35072 ft | 497 kts | 113° |
| 2026-05-08 10:45 | 50.24162 | 6.81366 | 35077 ft | 497 kts | 112° |
| 2026-05-08 10:46 | 50.21751 | 6.91511 | 35085 ft | 498 kts | 112° |
| 2026-05-08 10:46 | 50.19346 | 7.01671 | 35089 ft | 498 kts | 112° |
| 2026-05-08 10:47 | 50.16948 | 7.11771 | 35085 ft | 498 kts | 112° |
| 2026-05-08 10:47 | 50.14527 | 7.21918 | 35088 ft | 499 kts | 112° |
| 2026-05-08 10:48 | 50.12098 | 7.32057 | 35088 ft | 499 kts | 112° |
| 2026-05-08 10:48 | 50.09645 | 7.42245 | 35089 ft | 498 kts | 112° |
| 2026-05-08 10:49 | 50.07210 | 7.52308 | 35087 ft | 498 kts | 112° |
| 2026-05-08 10:49 | 50.04745 | 7.62450 | 35081 ft | 498 kts | 112° |
| 2026-05-08 10:50 | 50.02259 | 7.72489 | 35077 ft | 497 kts | 114° |
| 2026-05-08 10:50 | 49.99741 | 7.82516 | 35071 ft | 498 kts | 113° |
| 2026-05-08 10:51 | 49.97238 | 7.92593 | 35072 ft | 498 kts | 113° |
| 2026-05-08 10:51 | 49.94752 | 8.02626 | 35074 ft | 497 kts | 113° |
| 2026-05-08 10:52 | 49.92269 | 8.12613 | 35076 ft | 498 kts | 113° |
| 2026-05-08 10:52 | 49.89751 | 8.22696 | 35079 ft | 499 kts | 113° |
| 2026-05-08 10:53 | 49.87238 | 8.32726 | 35079 ft | 498 kts | 113° |
| 2026-05-08 10:53 | 49.84436 | 8.42478 | 35072 ft | 494 kts | 124° |
| 2026-05-08 10:54 | 49.80369 | 8.51064 | 35076 ft | 493 kts | 130° |
| 2026-05-08 10:54 | 49.76020 | 8.59389 | 35072 ft | 493 kts | 130° |
| 2026-05-08 10:55 | 49.71709 | 8.67632 | 35075 ft | 492 kts | 131° |
| 2026-05-08 10:55 | 49.67381 | 8.75819 | 35071 ft | 493 kts | 131° |
| 2026-05-08 10:56 | 49.63049 | 8.84084 | 35073 ft | 493 kts | 131° |
| 2026-05-08 10:56 | 49.58738 | 8.92351 | 35070 ft | 493 kts | 131° |
| 2026-05-08 10:57 | 49.54428 | 9.00608 | 35063 ft | 492 kts | 131° |
| 2026-05-08 10:57 | 49.47956 | 9.12959 | 35064 ft | 493 kts | 131° |
| 2026-05-08 10:58 | 49.43950 | 9.21498 | 35064 ft | 494 kts | 125° |
| 2026-05-08 10:58 | 49.40234 | 9.30407 | 35062 ft | 495 kts | 124° |
| 2026-05-08 10:59 | 49.36510 | 9.39285 | 35064 ft | 495 kts | 124° |
| 2026-05-08 10:59 | 49.32731 | 9.48166 | 35112 ft | 495 kts | 124° |
| 2026-05-08 11:00 | 49.28962 | 9.56962 | 35037 ft | 494 kts | 125° |
| 2026-05-08 11:00 | 49.27059 | 9.61389 | 35138 ft | 495 kts | 125° |
| 2026-05-08 11:00 | 49.25166 | 9.65783 | 35097 ft | 496 kts | 126° |
| 2026-05-08 11:01 | 49.21337 | 9.74502 | 35084 ft | 492 kts | 126° |
| 2026-05-08 11:01 | 49.17510 | 9.83227 | 35082 ft | 493 kts | 126° |
| 2026-05-08 11:02 | 49.11803 | 9.96318 | 35081 ft | 493 kts | 126° |
| 2026-05-08 11:03 | 49.07977 | 10.05080 | 35077 ft | 493 kts | 126° |
| 2026-05-08 11:03 | 49.03698 | 10.13121 | 35068 ft | 490 kts | 136° |
| 2026-05-08 11:04 | 48.98846 | 10.20448 | 35066 ft | 491 kts | 137° |
| 2026-05-08 11:04 | 48.93943 | 10.27758 | 35051 ft | 491 kts | 137° |
| 2026-05-08 11:05 | 48.89079 | 10.35080 | 35048 ft | 490 kts | 137° |
| 2026-05-08 11:05 | 48.84275 | 10.42336 | 35054 ft | 489 kts | 137° |
| 2026-05-08 11:06 | 48.79410 | 10.49669 | 35060 ft | 491 kts | 137° |
| 2026-05-08 11:06 | 48.74544 | 10.56979 | 35054 ft | 490 kts | 137° |
| 2026-05-08 11:07 | 48.69681 | 10.64266 | 35074 ft | 492 kts | 138° |
| 2026-05-08 11:07 | 48.64775 | 10.71503 | 35063 ft | 492 kts | 139° |
| 2026-05-08 11:08 | 48.59856 | 10.78729 | 35075 ft | 492 kts | 139° |
| 2026-05-08 11:08 | 48.55268 | 10.86565 | 35068 ft | 495 kts | 132° |
| 2026-05-08 11:09 | 48.50980 | 10.94695 | 35074 ft | 496 kts | 132° |
| 2026-05-08 11:09 | 48.46688 | 11.02771 | 35064 ft | 495 kts | 133° |
| 2026-05-08 11:10 | 48.42321 | 11.10882 | 35076 ft | 496 kts | 133° |
| 2026-05-08 11:10 | 48.37947 | 11.18949 | 35066 ft | 497 kts | 133° |
| 2026-05-08 11:11 | 48.33544 | 11.27046 | 35077 ft | 499 kts | 133° |
| 2026-05-08 11:11 | 48.29150 | 11.35099 | 35067 ft | 499 kts | 133° |
| 2026-05-08 11:12 | 48.24745 | 11.43152 | 35076 ft | 499 kts | 134° |
| 2026-05-08 11:12 | 48.20301 | 11.51250 | 35064 ft | 498 kts | 133° |
| 2026-05-08 11:13 | 48.15878 | 11.59288 | 35035 ft | 497 kts | 134° |
| 2026-05-08 11:13 | 48.11496 | 11.67213 | 35060 ft | 498 kts | 135° |
| 2026-05-08 11:14 | 48.07011 | 11.75167 | 35053 ft | 498 kts | 135° |
| 2026-05-08 11:14 | 48.02541 | 11.83139 | 35068 ft | 499 kts | 135° |
| 2026-05-08 11:15 | 47.98066 | 11.91155 | 35059 ft | 499 kts | 135° |
| 2026-05-08 11:15 | 47.93639 | 11.99080 | 35059 ft | 498 kts | 135° |
| 2026-05-08 11:16 | 47.89188 | 12.07026 | 35062 ft | 497 kts | 135° |
| 2026-05-08 11:16 | 47.84724 | 12.14972 | 35061 ft | 498 kts | 135° |
| 2026-05-08 11:17 | 47.80280 | 12.22862 | 35066 ft | 497 kts | 135° |
| 2026-05-08 11:17 | 47.75822 | 12.30745 | 35074 ft | 499 kts | 135° |
| 2026-05-08 11:18 | 47.71334 | 12.38662 | 35075 ft | 498 kts | 135° |
| 2026-05-08 11:18 | 47.66821 | 12.46598 | 35079 ft | 499 kts | 136° |
| 2026-05-08 11:19 | 47.62346 | 12.54470 | 35083 ft | 498 kts | 134° |
| 2026-05-08 11:19 | 47.57846 | 12.62344 | 35083 ft | 497 kts | 137° |
| 2026-05-08 11:20 | 47.53238 | 12.70001 | 35091 ft | 497 kts | 138° |
| 2026-05-08 11:20 | 47.48657 | 12.77600 | 35094 ft | 495 kts | 137° |
| 2026-05-08 11:21 | 47.44072 | 12.85306 | 35099 ft | 496 kts | 137° |
| 2026-05-08 11:21 | 47.39515 | 12.93000 | 35099 ft | 496 kts | 137° |
| 2026-05-08 11:22 | 47.34970 | 13.00664 | 35103 ft | 495 kts | 137° |
| 2026-05-08 11:22 | 47.30438 | 13.08281 | 35104 ft | 494 kts | 137° |
| 2026-05-08 11:23 | 47.25879 | 13.15918 | 35100 ft | 495 kts | 137° |
| 2026-05-08 11:23 | 47.21302 | 13.23566 | 35082 ft | 496 kts | 137° |
| 2026-05-08 11:24 | 47.16742 | 13.31166 | 35077 ft | 495 kts | 137° |
| 2026-05-08 11:24 | 47.12145 | 13.38804 | 35070 ft | 494 kts | 137° |
| 2026-05-08 11:25 | 47.07590 | 13.46351 | 35069 ft | 495 kts | 137° |
| 2026-05-08 11:25 | 47.02976 | 13.53973 | 35065 ft | 495 kts | 137° |
| 2026-05-08 11:26 | 46.98415 | 13.61487 | 35067 ft | 494 kts | 137° |
| 2026-05-08 11:26 | 46.93797 | 13.69033 | 35075 ft | 494 kts | 138° |
| 2026-05-08 11:27 | 46.89196 | 13.76442 | 35084 ft | 495 kts | 138° |
| 2026-05-08 11:27 | 46.84590 | 13.83918 | 35120 ft | 496 kts | 137° |
| 2026-05-08 11:28 | 46.80003 | 13.91386 | 35119 ft | 495 kts | 137° |
| 2026-05-08 11:28 | 46.75383 | 13.98893 | 35103 ft | 495 kts | 137° |
| 2026-05-08 11:29 | 46.70757 | 14.06388 | 35094 ft | 496 kts | 137° |
| 2026-05-08 11:29 | 46.66121 | 14.13879 | 35093 ft | 496 kts | 137° |
| 2026-05-08 11:30 | 46.61468 | 14.21378 | 35092 ft | 495 kts | 137° |
| 2026-05-08 11:30 | 46.56818 | 14.28847 | 35097 ft | 497 kts | 137° |
| 2026-05-08 11:31 | 46.52186 | 14.36271 | 35099 ft | 494 kts | 137° |
| 2026-05-08 11:31 | 46.47526 | 14.43718 | 35094 ft | 494 kts | 137° |
| 2026-05-08 11:32 | 46.42868 | 14.51140 | 35086 ft | 495 kts | 137° |
| 2026-05-08 11:32 | 46.38210 | 14.58541 | 35086 ft | 495 kts | 136° |
| 2026-05-08 11:33 | 46.33565 | 14.65903 | 35085 ft | 494 kts | 137° |
| 2026-05-08 11:33 | 46.28863 | 14.73217 | 35080 ft | 494 kts | 137° |
| 2026-05-08 11:34 | 46.24187 | 14.80507 | 35075 ft | 494 kts | 137° |
| 2026-05-08 11:34 | 46.19513 | 14.87834 | 35063 ft | 494 kts | 137° |
| 2026-05-08 11:35 | 46.14818 | 14.95193 | 35057 ft | 493 kts | 137° |
| 2026-05-08 11:35 | 46.10146 | 15.02498 | 35054 ft | 493 kts | 137° |
| 2026-05-08 11:36 | 46.05487 | 15.09763 | 35057 ft | 492 kts | 137° |
| 2026-05-08 11:36 | 46.00812 | 15.17034 | 35055 ft | 493 kts | 137° |
| 2026-05-08 11:37 | 45.96122 | 15.24310 | 35057 ft | 491 kts | 137° |
| 2026-05-08 11:37 | 45.91460 | 15.31520 | 35059 ft | 493 kts | 136° |
| 2026-05-08 11:38 | 45.86757 | 15.38776 | 35054 ft | 494 kts | 136° |
| 2026-05-08 11:38 | 45.82084 | 15.45971 | 35054 ft | 491 kts | 136° |
| 2026-05-08 11:39 | 45.77394 | 15.53171 | 35055 ft | 489 kts | 136° |
| 2026-05-08 11:39 | 45.72747 | 15.60282 | 35052 ft | 490 kts | 136° |
| 2026-05-08 11:40 | 45.68079 | 15.67393 | 35052 ft | 487 kts | 138° |
| 2026-05-08 11:40 | 45.63370 | 15.74442 | 35048 ft | 488 kts | 138° |
| 2026-05-08 11:41 | 45.58646 | 15.81549 | 35044 ft | 489 kts | 137° |
| 2026-05-08 11:41 | 45.53968 | 15.88621 | 35044 ft | 488 kts | 137° |
| 2026-05-08 11:42 | 45.49285 | 15.95695 | 35040 ft | 487 kts | 137° |
| 2026-05-08 11:42 | 45.44636 | 16.02701 | 35044 ft | 487 kts | 137° |
| 2026-05-08 11:43 | 45.39915 | 16.09795 | 35033 ft | 488 kts | 137° |
| 2026-05-08 11:43 | 45.35232 | 16.16816 | 35041 ft | 487 kts | 137° |
| 2026-05-08 11:44 | 45.30534 | 16.23840 | 35032 ft | 487 kts | 137° |
| 2026-05-08 11:44 | 45.25865 | 16.30802 | 35033 ft | 487 kts | 137° |
| 2026-05-08 11:45 | 45.21135 | 16.37837 | 35036 ft | 487 kts | 137° |
| 2026-05-08 11:45 | 45.16441 | 16.44801 | 35029 ft | 487 kts | 137° |
| 2026-05-08 11:46 | 45.12144 | 16.52304 | 35030 ft | 492 kts | 127° |
| 2026-05-08 11:46 | 45.08344 | 16.60414 | 35023 ft | 492 kts | 126° |
| 2026-05-08 11:47 | 45.04538 | 16.68473 | 35026 ft | 490 kts | 128° |
| 2026-05-08 11:47 | 45.00607 | 16.76512 | 35020 ft | 491 kts | 128° |
| 2026-05-08 11:48 | 44.96723 | 16.84459 | 35031 ft | 492 kts | 128° |
| 2026-05-08 11:48 | 44.92818 | 16.92469 | 35036 ft | 491 kts | 128° |
| 2026-05-08 11:49 | 44.88958 | 17.00381 | 35044 ft | 490 kts | 128° |
| 2026-05-08 11:49 | 44.85071 | 17.08331 | 35041 ft | 491 kts | 128° |
| 2026-05-08 11:50 | 44.81155 | 17.16316 | 35038 ft | 490 kts | 128° |
| 2026-05-08 11:50 | 44.77268 | 17.24219 | 35032 ft | 491 kts | 128° |
| 2026-05-08 11:51 | 44.73337 | 17.32188 | 35032 ft | 490 kts | 128° |
| 2026-05-08 11:51 | 44.69434 | 17.40078 | 35039 ft | 490 kts | 128° |
| 2026-05-08 11:52 | 44.65515 | 17.47977 | 35042 ft | 491 kts | 128° |
| 2026-05-08 11:52 | 44.61574 | 17.55900 | 35034 ft | 490 kts | 128° |
| 2026-05-08 11:53 | 44.57672 | 17.63724 | 35037 ft | 489 kts | 128° |
| 2026-05-08 11:53 | 44.53696 | 17.71584 | 35034 ft | 489 kts | 129° |
| 2026-05-08 11:54 | 44.49734 | 17.79370 | 35037 ft | 489 kts | 129° |
| 2026-05-08 11:54 | 44.45791 | 17.87175 | 35035 ft | 489 kts | 129° |
| 2026-05-08 11:55 | 44.41821 | 17.95041 | 35028 ft | 489 kts | 129° |
| 2026-05-08 11:55 | 44.37868 | 18.02860 | 35027 ft | 489 kts | 129° |
| 2026-05-08 11:56 | 44.33926 | 18.10637 | 35033 ft | 489 kts | 129° |
| 2026-05-08 11:56 | 44.29979 | 18.18403 | 35043 ft | 488 kts | 129° |
| 2026-05-08 11:57 | 44.26018 | 18.26173 | 35044 ft | 488 kts | 129° |
| 2026-05-08 11:57 | 44.22050 | 18.33937 | 35047 ft | 488 kts | 128° |
| 2026-05-08 11:58 | 44.18095 | 18.41654 | 35053 ft | 488 kts | 129° |
| 2026-05-08 11:58 | 44.14107 | 18.49417 | 35049 ft | 488 kts | 128° |
| 2026-05-08 11:59 | 44.08129 | 18.61013 | 35057 ft | 489 kts | 128° |
| 2026-05-08 11:59 | 44.04136 | 18.68700 | 35057 ft | 489 kts | 130° |
| 2026-05-08 12:00 | 44.00114 | 18.76324 | 35061 ft | 488 kts | 129° |
| 2026-05-08 12:00 | 43.96091 | 18.84002 | 35069 ft | 489 kts | 129° |
| 2026-05-08 12:01 | 43.92093 | 18.91656 | 35071 ft | 489 kts | 129° |
| 2026-05-08 12:01 | 43.88092 | 18.99315 | 35069 ft | 487 kts | 129° |
| 2026-05-08 12:02 | 43.84085 | 19.06965 | 35062 ft | 487 kts | 129° |
| 2026-05-08 12:02 | 43.80067 | 19.14615 | 35054 ft | 488 kts | 129° |
| 2026-05-08 12:03 | 43.76052 | 19.22237 | 35040 ft | 487 kts | 129° |
| 2026-05-08 12:03 | 43.72044 | 19.29824 | 35042 ft | 487 kts | 129° |
| 2026-05-08 12:04 | 43.68006 | 19.37447 | 35057 ft | 488 kts | 129° |
| 2026-05-08 12:04 | 43.63993 | 19.45006 | 35065 ft | 488 kts | 129° |
| 2026-05-08 12:05 | 43.59935 | 19.52629 | 35067 ft | 488 kts | 129° |
| 2026-05-08 12:05 | 43.55901 | 19.60186 | 35072 ft | 488 kts | 129° |
| 2026-05-08 12:06 | 43.51854 | 19.67729 | 35067 ft | 488 kts | 130° |
| 2026-05-08 12:06 | 43.47755 | 19.75243 | 35068 ft | 487 kts | 130° |
| 2026-05-08 12:07 | 43.43682 | 19.82749 | 35066 ft | 486 kts | 129° |
| 2026-05-08 12:07 | 43.39639 | 19.90233 | 35051 ft | 487 kts | 129° |
| 2026-05-08 12:08 | 43.35552 | 19.97792 | 35044 ft | 486 kts | 129° |
| 2026-05-08 12:08 | 43.31497 | 20.05277 | 35046 ft | 485 kts | 129° |
| 2026-05-08 12:09 | 43.27446 | 20.12731 | 35052 ft | 486 kts | 129° |
| 2026-05-08 12:09 | 43.23375 | 20.20203 | 35045 ft | 486 kts | 129° |
| 2026-05-08 12:10 | 43.19309 | 20.27648 | 35051 ft | 486 kts | 129° |
| 2026-05-08 12:10 | 43.15206 | 20.35141 | 35050 ft | 487 kts | 129° |
| 2026-05-08 12:11 | 43.11116 | 20.42593 | 35049 ft | 486 kts | 128° |
| 2026-05-08 12:11 | 43.07039 | 20.50001 | 35048 ft | 486 kts | 128° |
| 2026-05-08 12:12 | 43.02950 | 20.57414 | 35050 ft | 486 kts | 129° |
| 2026-05-08 12:12 | 42.98602 | 20.64516 | 35054 ft | 484 kts | 136° |
| 2026-05-08 12:13 | 42.93721 | 20.70885 | 35050 ft | 485 kts | 139° |
| 2026-05-08 12:13 | 42.88750 | 20.77214 | 35094 ft | 487 kts | 139° |
| 2026-05-08 12:14 | 42.86272 | 20.80409 | 35234 ft | 488 kts | 139° |
| 2026-05-08 12:14 | 42.83801 | 20.83613 | 35382 ft | 488 kts | 139° |
| 2026-05-08 12:14 | 42.81308 | 20.86853 | 35518 ft | 489 kts | 139° |
| 2026-05-08 12:14 | 42.78846 | 20.90054 | 35622 ft | 490 kts | 138° |
| 2026-05-08 12:15 | 42.73886 | 20.96496 | 35763 ft | 493 kts | 139° |
| 2026-05-08 12:15 | 42.68864 | 21.03005 | 35950 ft | 495 kts | 139° |
| 2026-05-08 12:16 | 42.63872 | 21.09459 | 36107 ft | 496 kts | 139° |
| 2026-05-08 12:16 | 42.58851 | 21.15934 | 36208 ft | 497 kts | 139° |
| 2026-05-08 12:17 | 42.53778 | 21.22461 | 36282 ft | 499 kts | 139° |
| 2026-05-08 12:17 | 42.48714 | 21.28962 | 36350 ft | 500 kts | 139° |
| 2026-05-08 12:18 | 42.43618 | 21.35489 | 36421 ft | 501 kts | 139° |
| 2026-05-08 12:18 | 42.38527 | 21.41994 | 36471 ft | 501 kts | 139° |
| 2026-05-08 12:19 | 42.36012 | 21.45204 | 36765 ft | 497 kts | 139° |
| 2026-05-08 12:19 | 42.33493 | 21.48415 | 36998 ft | 495 kts | 139° |
| 2026-05-08 12:19 | 42.28447 | 21.54832 | 37048 ft | 490 kts | 140° |
| 2026-05-08 12:20 | 42.23533 | 21.61074 | 37053 ft | 475 kts | 140° |
| 2026-05-08 12:20 | 42.18716 | 21.67178 | 37063 ft | 477 kts | 139° |
| 2026-05-08 12:21 | 42.13946 | 21.73563 | 37063 ft | 483 kts | 139° |
| 2026-05-08 12:21 | 42.09139 | 21.79978 | 37060 ft | 484 kts | 139° |
| 2026-05-08 12:22 | 42.04326 | 21.86364 | 37066 ft | 482 kts | 139° |
| 2026-05-08 12:22 | 41.99532 | 21.92699 | 37060 ft | 482 kts | 139° |
| 2026-05-08 12:23 | 41.94721 | 21.99040 | 37041 ft | 482 kts | 139° |
| 2026-05-08 12:23 | 41.89908 | 22.05371 | 37056 ft | 483 kts | 139° |
| 2026-05-08 12:24 | 41.85075 | 22.11715 | 37056 ft | 483 kts | 139° |
| 2026-05-08 12:24 | 41.80256 | 22.18029 | 37054 ft | 485 kts | 139° |
| 2026-05-08 12:25 | 41.75367 | 22.24415 | 37053 ft | 486 kts | 139° |
| 2026-05-08 12:25 | 41.70521 | 22.30734 | 37040 ft | 486 kts | 139° |
| 2026-05-08 12:26 | 41.65646 | 22.37072 | 37038 ft | 487 kts | 139° |
| 2026-05-08 12:26 | 41.60783 | 22.43385 | 37052 ft | 488 kts | 139° |
| 2026-05-08 12:27 | 41.55861 | 22.49757 | 37073 ft | 489 kts | 139° |
| 2026-05-08 12:27 | 41.50952 | 22.56098 | 37056 ft | 489 kts | 139° |
| 2026-05-08 12:28 | 41.46062 | 22.62402 | 37044 ft | 490 kts | 139° |
| 2026-05-08 12:28 | 41.41114 | 22.68728 | 37050 ft | 490 kts | 140° |
| 2026-05-08 12:29 | 41.36134 | 22.75023 | 37040 ft | 490 kts | 140° |
| 2026-05-08 12:29 | 41.31149 | 22.81286 | 37054 ft | 491 kts | 139° |
| 2026-05-08 12:30 | 41.26635 | 22.88261 | 37052 ft | 495 kts | 133° |
| 2026-05-08 12:30 | 41.22270 | 22.95416 | 37050 ft | 496 kts | 134° |
| 2026-05-08 12:31 | 41.17806 | 23.02455 | 37051 ft | 497 kts | 134° |
| 2026-05-08 12:31 | 41.13284 | 23.09442 | 37043 ft | 497 kts | 134° |
| 2026-05-08 12:32 | 41.08728 | 23.16435 | 37053 ft | 497 kts | 134° |
| 2026-05-08 12:32 | 41.04207 | 23.23357 | 37059 ft | 498 kts | 134° |
| 2026-05-08 12:33 | 40.99616 | 23.30374 | 37059 ft | 498 kts | 134° |
| 2026-05-08 12:33 | 40.95063 | 23.37318 | 37057 ft | 497 kts | 134° |
| 2026-05-08 12:34 | 40.90496 | 23.44265 | 37144 ft | 502 kts | 134° |
| 2026-05-08 12:34 | 40.85897 | 23.51251 | 37063 ft | 495 kts | 134° |
| 2026-05-08 12:35 | 40.81354 | 23.58137 | 37069 ft | 495 kts | 135° |
| 2026-05-08 12:35 | 40.76759 | 23.65077 | 37068 ft | 498 kts | 135° |
| 2026-05-08 12:36 | 40.72103 | 23.72007 | 37063 ft | 498 kts | 136° |
| 2026-05-08 12:36 | 40.67478 | 23.78886 | 37067 ft | 499 kts | 136° |
| 2026-05-08 12:37 | 40.62856 | 23.85801 | 37065 ft | 499 kts | 135° |
| 2026-05-08 12:37 | 40.58232 | 23.92722 | 37060 ft | 500 kts | 136° |
| 2026-05-08 12:38 | 40.53604 | 23.99638 | 37054 ft | 500 kts | 136° |
| 2026-05-08 12:38 | 40.48986 | 24.06521 | 37051 ft | 501 kts | 136° |
| 2026-05-08 12:39 | 40.44331 | 24.13440 | 37057 ft | 507 kts | 136° |
| 2026-05-08 12:39 | 40.39617 | 24.20431 | 37057 ft | 512 kts | 136° |
| 2026-05-08 12:40 | 40.34871 | 24.27460 | 37056 ft | 509 kts | 136° |
| 2026-05-08 12:40 | 40.30166 | 24.34411 | 37056 ft | 512 kts | 136° |
| 2026-05-08 12:41 | 40.25411 | 24.41414 | 37054 ft | 516 kts | 136° |
| 2026-05-08 12:41 | 40.20711 | 24.48325 | 37051 ft | 517 kts | 136° |
| 2026-05-08 12:42 | 40.15884 | 24.55407 | 37046 ft | 515 kts | 136° |
| 2026-05-08 12:42 | 40.11071 | 24.62450 | 37049 ft | 517 kts | 136° |
| 2026-05-08 12:43 | 40.06242 | 24.69456 | 37050 ft | 518 kts | 137° |
| 2026-05-08 12:43 | 40.03792 | 24.72969 | 36812 ft | 517 kts | 137° |
| 2026-05-08 12:43 | 40.01404 | 24.76404 | 37021 ft | 516 kts | 137° |
| 2026-05-08 12:44 | 39.96531 | 24.83446 | 37058 ft | 521 kts | 137° |
| 2026-05-08 12:44 | 39.91650 | 24.90518 | 37059 ft | 523 kts | 137° |
| 2026-05-08 12:45 | 39.86783 | 24.97566 | 37059 ft | 523 kts | 137° |
| 2026-05-08 12:45 | 39.81891 | 25.04633 | 37067 ft | 523 kts | 137° |
| 2026-05-08 12:46 | 39.76987 | 25.11696 | 37064 ft | 521 kts | 137° |
| 2026-05-08 12:46 | 39.74548 | 25.15203 | 37326 ft | 522 kts | 137° |
| 2026-05-08 12:46 | 39.72095 | 25.18722 | 37113 ft | 526 kts | 137° |
| 2026-05-08 12:47 | 39.67185 | 25.25763 | 37073 ft | 520 kts | 137° |
| 2026-05-08 12:47 | 39.62290 | 25.32765 | 37070 ft | 520 kts | 137° |
| 2026-05-08 12:48 | 39.57414 | 25.39719 | 37075 ft | 521 kts | 137° |
| 2026-05-08 12:48 | 39.52477 | 25.46746 | 37083 ft | 524 kts | 137° |
| 2026-05-08 12:49 | 39.47540 | 25.53758 | 37082 ft | 523 kts | 137° |
| 2026-05-08 12:49 | 39.42635 | 25.60711 | 37078 ft | 523 kts | 137° |
| 2026-05-08 12:50 | 39.37701 | 25.67668 | 37086 ft | 526 kts | 138° |
| 2026-05-08 12:50 | 39.32729 | 25.74583 | 37089 ft | 522 kts | 138° |
| 2026-05-08 12:51 | 39.25354 | 25.84900 | 37086 ft | 524 kts | 137° |
| 2026-05-08 12:52 | 39.20482 | 25.91734 | 37085 ft | 525 kts | 137° |
| 2026-05-08 12:52 | 39.13026 | 26.02167 | 37096 ft | 526 kts | 137° |
| 2026-05-08 12:53 | 39.08016 | 26.09156 | 37096 ft | 528 kts | 137° |
| 2026-05-08 12:53 | 39.03055 | 26.16065 | 37097 ft | 526 kts | 137° |
| 2026-05-08 12:54 | 38.98065 | 26.22995 | 37105 ft | 526 kts | 137° |
| 2026-05-08 12:54 | 38.93070 | 26.29915 | 37111 ft | 528 kts | 137° |
| 2026-05-08 12:55 | 38.88057 | 26.36848 | 37113 ft | 528 kts | 137° |
| 2026-05-08 12:55 | 38.83663 | 26.44556 | 37110 ft | 540 kts | 117° |
| 2026-05-08 12:56 | 38.82360 | 26.49081 | 37115 ft | 546 kts | 105° |
| 2026-05-08 12:56 | 38.81614 | 26.53879 | 37121 ft | 549 kts | 98° |
| 2026-05-08 12:56 | 38.80675 | 26.63619 | 37112 ft | 549 kts | 97° |
| 2026-05-08 12:57 | 38.79632 | 26.73351 | 37251 ft | 547 kts | 99° |
| 2026-05-08 12:57 | 38.79034 | 26.78216 | 37364 ft | 548 kts | 100° |
| 2026-05-08 12:57 | 38.78427 | 26.83035 | 37524 ft | 548 kts | 100° |
| 2026-05-08 12:58 | 38.77031 | 26.92690 | 37607 ft | 550 kts | 109° |
| 2026-05-08 12:58 | 38.75593 | 26.97258 | 37651 ft | 546 kts | 121° |
| 2026-05-08 12:58 | 38.73594 | 27.01357 | 37722 ft | 541 kts | 130° |
| 2026-05-08 12:59 | 38.71283 | 27.05141 | 37832 ft | 539 kts | 134° |
| 2026-05-08 12:59 | 38.68803 | 27.08828 | 37914 ft | 538 kts | 135° |
| 2026-05-08 12:59 | 38.63799 | 27.16065 | 37921 ft | 542 kts | 135° |
| 2026-05-08 13:00 | 38.61304 | 27.19717 | 38040 ft | 542 kts | 135° |
| 2026-05-08 13:00 | 38.58841 | 27.23358 | 38130 ft | 541 kts | 135° |
| 2026-05-08 13:00 | 38.53893 | 27.30720 | 38121 ft | 545 kts | 134° |
| 2026-05-08 13:01 | 38.51424 | 27.34399 | 38225 ft | 543 kts | 134° |
| 2026-05-08 13:01 | 38.48945 | 27.38095 | 38506 ft | 539 kts | 134° |
| 2026-05-08 13:01 | 38.46501 | 27.41729 | 38669 ft | 539 kts | 134° |
| 2026-05-08 13:01 | 38.44030 | 27.45395 | 38701 ft | 540 kts | 134° |
| 2026-05-08 13:02 | 38.41580 | 27.49027 | 38846 ft | 538 kts | 134° |
| 2026-05-08 13:02 | 38.39098 | 27.52700 | 38995 ft | 538 kts | 134° |
| 2026-05-08 13:02 | 38.36642 | 27.56333 | 39135 ft | 537 kts | 134° |
| 2026-05-08 13:02 | 38.34209 | 27.59927 | 39157 ft | 539 kts | 134° |
| 2026-05-08 13:03 | 38.29241 | 27.67239 | 39159 ft | 541 kts | 135° |
| 2026-05-08 13:03 | 38.24240 | 27.74491 | 39155 ft | 542 kts | 135° |
| 2026-05-08 13:04 | 38.19259 | 27.81747 | 39164 ft | 544 kts | 135° |
| 2026-05-08 13:04 | 38.14234 | 27.89097 | 39161 ft | 544 kts | 134° |
| 2026-05-08 13:05 | 38.09312 | 27.96305 | 39163 ft | 523 kts | 135° |
| 2026-05-08 13:05 | 38.04582 | 28.03206 | 39173 ft | 517 kts | 135° |
| 2026-05-08 13:06 | 37.99795 | 28.10158 | 39183 ft | 522 kts | 135° |
| 2026-05-08 13:06 | 37.94968 | 28.17160 | 39182 ft | 528 kts | 134° |
| 2026-05-08 13:07 | 37.90090 | 28.24229 | 39192 ft | 527 kts | 135° |
| 2026-05-08 13:07 | 37.85245 | 28.31239 | 39191 ft | 527 kts | 134° |
| 2026-05-08 13:08 | 37.80382 | 28.38256 | 39198 ft | 527 kts | 135° |
| 2026-05-08 13:08 | 37.75613 | 28.45118 | 39205 ft | 527 kts | 134° |
| 2026-05-08 13:09 | 37.70742 | 28.52112 | 39207 ft | 527 kts | 134° |
| 2026-05-08 13:09 | 37.65871 | 28.59094 | 39192 ft | 526 kts | 134° |
| 2026-05-08 13:10 | 37.61001 | 28.66054 | 39184 ft | 530 kts | 135° |
| 2026-05-08 13:10 | 37.56109 | 28.72938 | 39177 ft | 535 kts | 135° |
| 2026-05-08 13:11 | 37.51072 | 28.80043 | 39173 ft | 540 kts | 135° |
| 2026-05-08 13:11 | 37.46032 | 28.87190 | 39178 ft | 544 kts | 134° |
| 2026-05-08 13:12 | 37.40991 | 28.94338 | 39178 ft | 543 kts | 134° |
| 2026-05-08 13:12 | 37.35965 | 29.01451 | 39190 ft | 543 kts | 134° |
| 2026-05-08 13:13 | 37.30885 | 29.08619 | 39205 ft | 543 kts | 134° |
| 2026-05-08 13:13 | 37.25841 | 29.15720 | 39204 ft | 545 kts | 134° |
| 2026-05-08 13:14 | 37.20760 | 29.22859 | 39204 ft | 546 kts | 134° |
| 2026-05-08 13:14 | 37.15644 | 29.30032 | 39209 ft | 547 kts | 134° |
| 2026-05-08 13:15 | 37.10556 | 29.37149 | 39214 ft | 546 kts | 134° |
| 2026-05-08 13:15 | 37.05463 | 29.44259 | 39221 ft | 546 kts | 134° |
| 2026-05-08 13:16 | 37.00370 | 29.51352 | 39225 ft | 547 kts | 134° |
| 2026-05-08 13:16 | 36.95293 | 29.58407 | 39252 ft | 547 kts | 134° |
| 2026-05-08 13:17 | 36.90168 | 29.65515 | 39257 ft | 548 kts | 134° |
| 2026-05-08 13:17 | 36.85019 | 29.72558 | 39260 ft | 546 kts | 135° |
| 2026-05-08 13:18 | 36.79878 | 29.79592 | 39263 ft | 547 kts | 134° |
| 2026-05-08 13:18 | 36.74722 | 29.86683 | 39261 ft | 548 kts | 134° |
| 2026-05-08 13:19 | 36.69578 | 29.93755 | 39251 ft | 549 kts | 134° |
| 2026-05-08 13:19 | 36.64399 | 30.00861 | 39243 ft | 549 kts | 134° |
| 2026-05-08 13:20 | 36.59262 | 30.07895 | 39240 ft | 548 kts | 134° |
| 2026-05-08 13:20 | 36.54081 | 30.14972 | 39216 ft | 549 kts | 134° |
| 2026-05-08 13:21 | 36.48848 | 30.22104 | 39164 ft | 550 kts | 134° |
| 2026-05-08 13:21 | 36.43683 | 30.29128 | 39122 ft | 552 kts | 134° |
| 2026-05-08 13:22 | 36.38457 | 30.36221 | 39114 ft | 552 kts | 134° |
| 2026-05-08 13:22 | 36.33238 | 30.43288 | 39111 ft | 553 kts | 133° |
| 2026-05-08 13:23 | 36.27985 | 30.50386 | 39108 ft | 553 kts | 133° |
| 2026-05-08 13:23 | 36.22699 | 30.57515 | 39108 ft | 553 kts | 133° |
| 2026-05-08 13:24 | 36.17452 | 30.64574 | 39107 ft | 554 kts | 133° |
| 2026-05-08 13:24 | 36.12168 | 30.71598 | 39110 ft | 554 kts | 135° |
| 2026-05-08 13:25 | 36.06785 | 30.78601 | 39099 ft | 553 kts | 140° |
| 2026-05-08 13:25 | 36.03742 | 30.81444 | 39110 ft | 548 kts | 152° |
| 2026-05-08 13:25 | 36.00329 | 30.83628 | 39114 ft | 544 kts | 161° |
| 2026-05-08 13:26 | 35.93208 | 30.86791 | 39106 ft | 538 kts | 168° |
| 2026-05-08 13:26 | 35.85959 | 30.89478 | 39103 ft | 538 kts | 168° |
| 2026-05-08 13:27 | 35.78726 | 30.92178 | 39104 ft | 538 kts | 168° |
| 2026-05-08 13:27 | 35.71486 | 30.94937 | 39104 ft | 538 kts | 168° |
| 2026-05-08 13:28 | 35.64276 | 30.97697 | 39111 ft | 538 kts | 168° |
| 2026-05-08 13:28 | 35.57077 | 31.00449 | 39104 ft | 538 kts | 168° |
| 2026-05-08 13:29 | 35.49834 | 31.03210 | 39110 ft | 539 kts | 167° |
| 2026-05-08 13:29 | 35.42627 | 31.05952 | 39103 ft | 539 kts | 167° |
| 2026-05-08 13:30 | 35.35414 | 31.08692 | 39106 ft | 539 kts | 167° |
| 2026-05-08 13:30 | 35.28171 | 31.11437 | 39102 ft | 539 kts | 167° |
| 2026-05-08 13:31 | 35.20994 | 31.14152 | 39104 ft | 540 kts | 167° |
| 2026-05-08 13:31 | 35.13733 | 31.16894 | 39101 ft | 540 kts | 167° |
| 2026-05-08 13:32 | 35.06527 | 31.19611 | 39111 ft | 540 kts | 167° |
| 2026-05-08 13:32 | 34.99273 | 31.22339 | 39107 ft | 541 kts | 167° |
| 2026-05-08 13:33 | 34.92028 | 31.25061 | 39110 ft | 539 kts | 167° |
| 2026-05-08 13:33 | 34.84838 | 31.27757 | 39105 ft | 539 kts | 167° |
| 2026-05-08 13:34 | 34.77591 | 31.30468 | 39104 ft | 541 kts | 167° |
| 2026-05-08 13:34 | 34.70330 | 31.33181 | 39107 ft | 539 kts | 167° |
| 2026-05-08 13:35 | 34.63116 | 31.35871 | 39100 ft | 538 kts | 167° |
| 2026-05-08 13:35 | 34.55907 | 31.38552 | 39103 ft | 539 kts | 167° |
| 2026-05-08 13:36 | 34.48666 | 31.41241 | 39104 ft | 540 kts | 167° |
| 2026-05-08 13:36 | 34.41462 | 31.43913 | 39102 ft | 538 kts | 167° |
| 2026-05-08 13:37 | 34.34242 | 31.46585 | 39100 ft | 537 kts | 167° |
| 2026-05-08 13:37 | 34.27059 | 31.49237 | 39100 ft | 538 kts | 167° |
| 2026-05-08 13:38 | 34.19896 | 31.51878 | 39103 ft | 538 kts | 166° |
| 2026-05-08 13:38 | 34.12646 | 31.54548 | 39101 ft | 538 kts | 167° |
| 2026-05-08 13:39 | 34.05414 | 31.57204 | 39102 ft | 539 kts | 166° |
| 2026-05-08 13:39 | 33.98276 | 31.59822 | 39093 ft | 538 kts | 166° |
| 2026-05-08 13:40 | 33.91063 | 31.62463 | 39099 ft | 537 kts | 166° |
| 2026-05-08 13:40 | 33.83821 | 31.65111 | 39096 ft | 538 kts | 167° |
| 2026-05-08 13:41 | 33.76622 | 31.67759 | 39097 ft | 537 kts | 167° |
| 2026-05-08 13:41 | 33.69350 | 31.70352 | 39096 ft | 537 kts | 167° |
| 2026-05-08 13:42 | 33.62123 | 31.72918 | 39097 ft | 537 kts | 167° |
| 2026-05-08 13:42 | 33.54918 | 31.75514 | 39092 ft | 538 kts | 167° |
| 2026-05-08 13:43 | 33.47706 | 31.78126 | 39094 ft | 537 kts | 167° |
| 2026-05-08 13:43 | 33.40567 | 31.80707 | 39095 ft | 537 kts | 167° |
| 2026-05-08 13:44 | 33.33325 | 31.83319 | 39092 ft | 538 kts | 167° |
| 2026-05-08 13:44 | 33.26129 | 31.85909 | 39093 ft | 538 kts | 167° |
| 2026-05-08 13:45 | 33.18908 | 31.88505 | 39089 ft | 536 kts | 167° |
| 2026-05-08 13:45 | 33.11700 | 31.91090 | 39090 ft | 537 kts | 167° |
| 2026-05-08 13:46 | 33.04459 | 31.93684 | 39090 ft | 537 kts | 167° |
| 2026-05-08 13:46 | 32.97224 | 31.96270 | 39086 ft | 537 kts | 167° |
| 2026-05-08 13:47 | 32.89992 | 31.98852 | 39089 ft | 537 kts | 166° |
| 2026-05-08 13:47 | 32.82958 | 32.01358 | 39086 ft | 537 kts | 167° |
| 2026-05-08 13:48 | 32.75716 | 32.03935 | 39084 ft | 537 kts | 167° |
| 2026-05-08 13:48 | 32.68481 | 32.06506 | 39083 ft | 537 kts | 166° |
| 2026-05-08 13:49 | 32.64981 | 32.08139 | 39081 ft | 541 kts | 154° |
| 2026-05-08 13:49 | 32.61737 | 32.10581 | 39081 ft | 543 kts | 142° |
| 2026-05-08 13:49 | 32.56269 | 32.16862 | 39079 ft | 544 kts | 131° |
| 2026-05-08 13:50 | 32.51234 | 32.23544 | 39078 ft | 544 kts | 131° |
| 2026-05-08 13:50 | 32.46081 | 32.30263 | 39071 ft | 544 kts | 132° |
| 2026-05-08 13:51 | 32.40893 | 32.36875 | 39070 ft | 545 kts | 132° |
| 2026-05-08 13:51 | 32.35657 | 32.43497 | 39069 ft | 543 kts | 132° |
| 2026-05-08 13:52 | 32.30489 | 32.50024 | 39065 ft | 544 kts | 132° |
| 2026-05-08 13:52 | 32.25277 | 32.56599 | 39063 ft | 544 kts | 132° |
| 2026-05-08 13:53 | 32.20070 | 32.63157 | 39061 ft | 543 kts | 132° |
| 2026-05-08 13:53 | 32.14879 | 32.69643 | 39056 ft | 543 kts | 133° |
| 2026-05-08 13:54 | 32.09635 | 32.76150 | 39055 ft | 544 kts | 133° |
| 2026-05-08 13:54 | 32.04382 | 32.82708 | 39053 ft | 543 kts | 133° |
| 2026-05-08 13:55 | 31.99207 | 32.89178 | 39053 ft | 544 kts | 132° |
| 2026-05-08 13:56 | 31.91366 | 32.98963 | 39048 ft | 542 kts | 132° |
| 2026-05-08 13:56 | 31.86134 | 33.05479 | 39045 ft | 543 kts | 132° |
| 2026-05-08 13:57 | 31.80749 | 33.11875 | 39040 ft | 544 kts | 141° |
| 2026-05-08 13:57 | 31.74395 | 33.16908 | 39045 ft | 545 kts | 150° |
| 2026-05-08 13:58 | 31.67782 | 33.21487 | 39044 ft | 543 kts | 150° |
| 2026-05-08 13:58 | 31.61232 | 33.26053 | 39042 ft | 544 kts | 150° |
| 2026-05-08 13:59 | 31.54669 | 33.30696 | 39043 ft | 544 kts | 149° |
| 2026-05-08 13:59 | 31.48130 | 33.35337 | 39044 ft | 545 kts | 149° |
| 2026-05-08 14:00 | 31.41570 | 33.39985 | 39041 ft | 546 kts | 149° |
| 2026-05-08 14:00 | 31.35031 | 33.44609 | 39041 ft | 546 kts | 149° |
| 2026-05-08 14:01 | 31.28473 | 33.49238 | 39041 ft | 547 kts | 149° |
| 2026-05-08 14:01 | 31.21883 | 33.53881 | 39038 ft | 546 kts | 149° |
| 2026-05-08 14:02 | 31.15343 | 33.58483 | 39041 ft | 546 kts | 149° |
| 2026-05-08 14:02 | 31.08745 | 33.63117 | 39043 ft | 548 kts | 149° |
| 2026-05-08 14:03 | 31.02157 | 33.67714 | 39046 ft | 548 kts | 150° |
| 2026-05-08 14:03 | 30.95506 | 33.72311 | 39046 ft | 547 kts | 150° |
| 2026-05-08 14:04 | 30.88886 | 33.76916 | 39029 ft | 547 kts | 149° |
| 2026-05-08 14:04 | 30.82322 | 33.81497 | 39039 ft | 548 kts | 150° |
| 2026-05-08 14:05 | 30.75734 | 33.86090 | 39036 ft | 549 kts | 149° |
| 2026-05-08 14:05 | 30.69119 | 33.90693 | 39034 ft | 547 kts | 149° |
| 2026-05-08 14:06 | 30.62542 | 33.95260 | 39031 ft | 547 kts | 149° |
| 2026-05-08 14:06 | 30.55943 | 33.99835 | 39025 ft | 547 kts | 149° |
| 2026-05-08 14:07 | 30.49303 | 34.04430 | 39019 ft | 548 kts | 149° |
| 2026-05-08 14:07 | 30.42742 | 34.08964 | 39011 ft | 547 kts | 149° |
| 2026-05-08 14:08 | 30.36124 | 34.13531 | 39011 ft | 546 kts | 149° |
| 2026-05-08 14:08 | 30.29536 | 34.18069 | 39014 ft | 548 kts | 149° |
| 2026-05-08 14:09 | 30.22963 | 34.22591 | 39018 ft | 548 kts | 149° |
| 2026-05-08 14:09 | 30.16375 | 34.27114 | 39015 ft | 548 kts | 149° |
| 2026-05-08 14:10 | 30.09757 | 34.31652 | 39019 ft | 547 kts | 149° |
| 2026-05-08 14:10 | 30.03136 | 34.36184 | 39026 ft | 547 kts | 149° |
| 2026-05-08 14:11 | 29.96561 | 34.40678 | 39034 ft | 547 kts | 149° |
| 2026-05-08 14:11 | 29.89951 | 34.45189 | 39040 ft | 546 kts | 149° |
| 2026-05-08 14:12 | 29.83327 | 34.49705 | 39047 ft | 545 kts | 149° |
| 2026-05-08 14:12 | 29.76717 | 34.54202 | 39047 ft | 547 kts | 149° |
| 2026-05-08 14:13 | 29.70058 | 34.58725 | 39053 ft | 546 kts | 149° |
| 2026-05-08 14:13 | 29.63443 | 34.63211 | 39052 ft | 547 kts | 149° |
| 2026-05-08 14:14 | 29.56827 | 34.67670 | 39050 ft | 547 kts | 150° |
| 2026-05-08 14:14 | 29.50276 | 34.72221 | 39042 ft | 546 kts | 142° |
| 2026-05-08 14:14 | 29.47446 | 34.75161 | 39038 ft | 544 kts | 129° |
| 2026-05-08 14:15 | 29.45162 | 34.78654 | 39024 ft | 540 kts | 117° |
| 2026-05-08 14:15 | 29.43512 | 34.82577 | 39013 ft | 532 kts | 104° |
| 2026-05-08 14:15 | 29.42549 | 34.86619 | 38997 ft | 525 kts | 95° |
| 2026-05-08 14:16 | 29.41578 | 34.94923 | 38969 ft | 514 kts | 84° |
| 2026-05-08 14:16 | 29.41847 | 34.99031 | 38959 ft | 502 kts | 72° |
| 2026-05-08 14:16 | 29.42576 | 35.02913 | 38955 ft | 496 kts | 68° |
| 2026-05-08 14:17 | 29.44453 | 35.10580 | 38982 ft | 495 kts | 66° |
| 2026-05-08 14:17 | 29.46350 | 35.18250 | 39012 ft | 495 kts | 66° |
| 2026-05-08 14:18 | 29.48185 | 35.25959 | 39041 ft | 496 kts | 67° |
| 2026-05-08 14:18 | 29.49992 | 35.33678 | 39051 ft | 497 kts | 67° |
| 2026-05-08 14:19 | 29.51784 | 35.41383 | 39061 ft | 497 kts | 67° |
| 2026-05-08 14:19 | 29.53590 | 35.49163 | 39071 ft | 497 kts | 67° |
| 2026-05-08 14:20 | 29.55416 | 35.56853 | 39071 ft | 496 kts | 66° |
| 2026-05-08 14:20 | 29.57235 | 35.64473 | 39067 ft | 497 kts | 66° |
| 2026-05-08 14:21 | 29.59047 | 35.72230 | 39067 ft | 498 kts | 68° |
| 2026-05-08 14:21 | 29.60835 | 35.79924 | 39072 ft | 497 kts | 67° |
| 2026-05-08 14:22 | 29.62343 | 35.87819 | 39074 ft | 503 kts | 72° |
| 2026-05-08 14:22 | 29.63551 | 35.95639 | 39083 ft | 504 kts | 72° |
| 2026-05-08 14:23 | 29.64809 | 36.03622 | 39083 ft | 502 kts | 72° |
| 2026-05-08 14:23 | 29.66083 | 36.11510 | 39087 ft | 501 kts | 72° |
| 2026-05-08 14:24 | 29.67379 | 36.19486 | 39063 ft | 502 kts | 72° |
| 2026-05-08 14:24 | 29.68673 | 36.27484 | 39065 ft | 502 kts | 72° |
| 2026-05-08 14:25 | 29.69952 | 36.35419 | 39062 ft | 502 kts | 72° |
| 2026-05-08 14:25 | 29.71249 | 36.43411 | 39067 ft | 504 kts | 71° |
| 2026-05-08 14:26 | 29.72553 | 36.51408 | 39066 ft | 504 kts | 71° |
| 2026-05-08 14:26 | 29.73846 | 36.59371 | 39070 ft | 504 kts | 72° |
| 2026-05-08 14:27 | 29.74950 | 36.67417 | 39064 ft | 512 kts | 82° |
| 2026-05-08 14:27 | 29.74738 | 36.71587 | 39086 ft | 524 kts | 92° |
| 2026-05-08 14:27 | 29.74058 | 36.75740 | 39084 ft | 531 kts | 97° |
| 2026-05-08 14:28 | 29.72264 | 36.84085 | 39080 ft | 535 kts | 99° |
| 2026-05-08 14:28 | 29.70465 | 36.92495 | 39084 ft | 531 kts | 98° |
| 2026-05-08 14:29 | 29.68776 | 37.00827 | 39044 ft | 531 kts | 97° |
| 2026-05-08 14:29 | 29.67117 | 37.09129 | 39079 ft | 531 kts | 97° |
| 2026-05-08 14:30 | 29.65450 | 37.17456 | 39083 ft | 531 kts | 98° |
| 2026-05-08 14:30 | 29.63761 | 37.25845 | 39085 ft | 531 kts | 98° |
| 2026-05-08 14:31 | 29.62074 | 37.34186 | 39078 ft | 530 kts | 98° |
| 2026-05-08 14:31 | 29.60389 | 37.42496 | 39089 ft | 530 kts | 98° |
| 2026-05-08 14:32 | 29.57856 | 37.54935 | 39077 ft | 530 kts | 98° |
| 2026-05-08 14:32 | 29.56153 | 37.63258 | 39082 ft | 530 kts | 98° |
| 2026-05-08 14:33 | 29.54425 | 37.71553 | 39070 ft | 528 kts | 99° |
| 2026-05-08 14:33 | 29.52691 | 37.79800 | 39054 ft | 527 kts | 99° |
| 2026-05-08 14:34 | 29.50969 | 37.88084 | 39044 ft | 527 kts | 99° |
| 2026-05-08 14:34 | 29.49259 | 37.96328 | 39035 ft | 528 kts | 99° |
| 2026-05-08 14:35 | 29.47644 | 38.04622 | 39041 ft | 526 kts | 97° |
| 2026-05-08 14:35 | 29.46213 | 38.12916 | 39045 ft | 525 kts | 97° |
| 2026-05-08 14:36 | 29.44780 | 38.21167 | 39043 ft | 524 kts | 98° |
| 2026-05-08 14:36 | 29.43312 | 38.29472 | 39040 ft | 523 kts | 98° |
| 2026-05-08 14:37 | 29.41848 | 38.37673 | 39042 ft | 523 kts | 98° |
| 2026-05-08 14:37 | 29.40373 | 38.45910 | 39045 ft | 522 kts | 98° |
| 2026-05-08 14:38 | 29.38891 | 38.54155 | 39048 ft | 522 kts | 98° |
| 2026-05-08 14:38 | 29.37414 | 38.62342 | 39044 ft | 520 kts | 98° |
| 2026-05-08 14:39 | 29.35918 | 38.70503 | 39049 ft | 519 kts | 99° |
| 2026-05-08 14:39 | 29.34395 | 38.78670 | 39058 ft | 520 kts | 100° |
| 2026-05-08 14:40 | 29.32896 | 38.86815 | 39056 ft | 516 kts | 99° |
| 2026-05-08 14:40 | 29.31353 | 38.94873 | 39051 ft | 515 kts | 101° |
| 2026-05-08 14:41 | 29.29656 | 39.02951 | 39046 ft | 516 kts | 102° |
| 2026-05-08 14:41 | 29.27951 | 39.11014 | 39037 ft | 517 kts | 102° |
| 2026-05-08 14:42 | 29.26254 | 39.19091 | 39045 ft | 517 kts | 102° |
| 2026-05-08 14:42 | 29.24564 | 39.27138 | 39044 ft | 516 kts | 103° |
| 2026-05-08 14:43 | 29.22868 | 39.35183 | 39044 ft | 517 kts | 103° |
| 2026-05-08 14:43 | 29.21165 | 39.43241 | 39063 ft | 516 kts | 103° |
| 2026-05-08 14:44 | 29.19466 | 39.51252 | 39063 ft | 515 kts | 104° |
| 2026-05-08 14:44 | 29.17761 | 39.59263 | 39062 ft | 515 kts | 104° |
| 2026-05-08 14:45 | 29.16048 | 39.67276 | 39052 ft | 514 kts | 105° |
| 2026-05-08 14:45 | 29.14287 | 39.75302 | 39042 ft | 514 kts | 105° |
| 2026-05-08 14:46 | 29.12544 | 39.83310 | 39043 ft | 513 kts | 105° |
| 2026-05-08 14:46 | 29.10827 | 39.91302 | 39042 ft | 513 kts | 104° |
| 2026-05-08 14:47 | 29.09482 | 39.99431 | 39057 ft | 510 kts | 101° |
| 2026-05-08 14:47 | 29.08284 | 40.07482 | 39051 ft | 508 kts | 102° |
| 2026-05-08 14:48 | 29.07041 | 40.15543 | 39055 ft | 509 kts | 102° |
| 2026-05-08 14:48 | 29.05772 | 40.23572 | 39056 ft | 512 kts | 102° |
| 2026-05-08 14:49 | 29.04486 | 40.31645 | 39059 ft | 512 kts | 103° |
| 2026-05-08 14:49 | 29.03183 | 40.39796 | 39064 ft | 512 kts | 103° |
| 2026-05-08 14:50 | 29.01896 | 40.47815 | 39074 ft | 512 kts | 103° |
| 2026-05-08 14:50 | 29.00589 | 40.55925 | 39075 ft | 511 kts | 104° |
| 2026-05-08 14:51 | 28.99287 | 40.63967 | 39077 ft | 511 kts | 104° |
| 2026-05-08 14:51 | 28.97953 | 40.72013 | 39075 ft | 509 kts | 105° |
| 2026-05-08 14:52 | 28.95956 | 40.84002 | 39069 ft | 507 kts | 105° |
| 2026-05-08 14:53 | 28.94639 | 40.92004 | 39061 ft | 506 kts | 105° |
| 2026-05-08 14:53 | 28.93327 | 40.99975 | 39058 ft | 506 kts | 106° |
| 2026-05-08 14:54 | 28.92014 | 41.07924 | 39056 ft | 504 kts | 106° |
| 2026-05-08 14:54 | 28.90696 | 41.15862 | 39043 ft | 507 kts | 107° |
| 2026-05-08 14:55 | 28.89360 | 41.23875 | 39060 ft | 509 kts | 107° |
| 2026-05-08 14:55 | 28.88027 | 41.31869 | 39049 ft | 508 kts | 107° |
| 2026-05-08 14:56 | 28.86686 | 41.39874 | 39058 ft | 507 kts | 107° |
| 2026-05-08 14:56 | 28.85345 | 41.47834 | 39044 ft | 507 kts | 108° |
| 2026-05-08 14:57 | 28.83994 | 41.55819 | 39058 ft | 508 kts | 108° |
| 2026-05-08 14:57 | 28.82636 | 41.63826 | 39054 ft | 507 kts | 108° |
| 2026-05-08 14:58 | 28.81257 | 41.71767 | 39056 ft | 506 kts | 109° |
| 2026-05-08 14:58 | 28.79862 | 41.79734 | 39047 ft | 507 kts | 109° |
| 2026-05-08 14:59 | 28.78486 | 41.87689 | 39051 ft | 509 kts | 110° |
| 2026-05-08 14:59 | 28.76419 | 41.99665 | 39033 ft | 509 kts | 110° |
| 2026-05-08 15:00 | 28.75034 | 42.07653 | 39043 ft | 512 kts | 110° |
| 2026-05-08 15:00 | 28.73639 | 42.15696 | 39031 ft | 510 kts | 110° |
| 2026-05-08 15:01 | 28.72243 | 42.23701 | 39048 ft | 509 kts | 110° |
| 2026-05-08 15:01 | 28.70841 | 42.31698 | 39047 ft | 510 kts | 110° |
| 2026-05-08 15:02 | 28.69439 | 42.39671 | 39046 ft | 511 kts | 110° |
| 2026-05-08 15:02 | 28.68020 | 42.47715 | 39051 ft | 513 kts | 110° |
| 2026-05-08 15:03 | 28.66596 | 42.55761 | 39058 ft | 512 kts | 110° |
| 2026-05-08 15:03 | 28.65169 | 42.63799 | 39056 ft | 511 kts | 110° |
| 2026-05-08 15:04 | 28.64320 | 42.67682 | 39055 ft | 498 kts | 119° |
| 2026-05-08 15:04 | 28.62967 | 42.71280 | 39057 ft | 487 kts | 126° |
| 2026-05-08 15:04 | 28.59749 | 42.78143 | 39057 ft | 485 kts | 129° |
| 2026-05-08 15:05 | 28.56471 | 42.84934 | 39062 ft | 486 kts | 129° |
| 2026-05-08 15:05 | 28.53235 | 42.91768 | 39063 ft | 487 kts | 128° |
| 2026-05-08 15:06 | 28.50014 | 42.98616 | 39066 ft | 489 kts | 128° |
| 2026-05-08 15:06 | 28.46787 | 43.05501 | 39062 ft | 484 kts | 128° |
| 2026-05-08 15:07 | 28.43595 | 43.12296 | 39060 ft | 482 kts | 128° |
| 2026-05-08 15:07 | 28.40385 | 43.19094 | 39064 ft | 488 kts | 128° |
| 2026-05-08 15:08 | 28.37701 | 43.24786 | 39062 ft | 484 kts | 128° |
| 2026-05-08 15:08 | 28.33945 | 43.32731 | 39051 ft | 486 kts | 128° |
| 2026-05-08 15:09 | 28.30749 | 43.39483 | 39050 ft | 484 kts | 128° |
| 2026-05-08 15:09 | 28.27538 | 43.46259 | 39040 ft | 482 kts | 128° |
| 2026-05-08 15:10 | 28.24328 | 43.53016 | 39043 ft | 483 kts | 129° |
| 2026-05-08 15:10 | 28.21120 | 43.59757 | 39035 ft | 482 kts | 129° |
| 2026-05-08 15:11 | 28.17877 | 43.66519 | 39030 ft | 483 kts | 130° |
| 2026-05-08 15:11 | 28.14575 | 43.73264 | 39036 ft | 481 kts | 130° |
| 2026-05-08 15:12 | 28.11333 | 43.79915 | 39020 ft | 479 kts | 130° |
| 2026-05-08 15:12 | 28.08073 | 43.86620 | 39022 ft | 483 kts | 130° |
| 2026-05-08 15:13 | 28.04777 | 43.93406 | 39024 ft | 486 kts | 130° |
| 2026-05-08 15:13 | 28.01505 | 44.00148 | 39022 ft | 484 kts | 130° |
| 2026-05-08 15:14 | 27.98227 | 44.06894 | 39031 ft | 483 kts | 130° |
| 2026-05-08 15:14 | 27.94941 | 44.13622 | 39044 ft | 487 kts | 130° |
| 2026-05-08 15:15 | 27.91678 | 44.20403 | 39039 ft | 487 kts | 129° |
| 2026-05-08 15:15 | 27.88401 | 44.27269 | 39050 ft | 490 kts | 130° |
| 2026-05-08 15:16 | 27.85121 | 44.34113 | 39065 ft | 494 kts | 129° |
| 2026-05-08 15:16 | 27.81818 | 44.40999 | 39063 ft | 494 kts | 130° |
| 2026-05-08 15:17 | 27.78516 | 44.47861 | 39056 ft | 495 kts | 129° |
| 2026-05-08 15:17 | 27.75181 | 44.54777 | 39067 ft | 496 kts | 130° |
| 2026-05-08 15:18 | 27.71845 | 44.61691 | 39070 ft | 496 kts | 130° |
| 2026-05-08 15:18 | 27.68496 | 44.68581 | 39071 ft | 498 kts | 130° |
| 2026-05-08 15:19 | 27.65167 | 44.75502 | 39067 ft | 502 kts | 125° |
| 2026-05-08 15:19 | 27.63983 | 44.79322 | 39083 ft | 517 kts | 116° |
| 2026-05-08 15:19 | 27.63140 | 44.83336 | 39082 ft | 525 kts | 112° |
| 2026-05-08 15:20 | 27.61756 | 44.91509 | 39097 ft | 530 kts | 111° |
| 2026-05-08 15:20 | 27.60343 | 44.99764 | 39102 ft | 529 kts | 112° |
| 2026-05-08 15:21 | 27.58868 | 45.07932 | 39088 ft | 525 kts | 112° |
| 2026-05-08 15:21 | 27.57372 | 45.16016 | 39089 ft | 529 kts | 112° |
| 2026-05-08 15:22 | 27.55842 | 45.24252 | 39090 ft | 529 kts | 112° |
| 2026-05-08 15:22 | 27.54323 | 45.32428 | 39080 ft | 529 kts | 112° |
| 2026-05-08 15:23 | 27.52799 | 45.40584 | 39085 ft | 528 kts | 112° |
| 2026-05-08 15:23 | 27.51271 | 45.48733 | 39069 ft | 528 kts | 112° |
| 2026-05-08 15:24 | 27.49731 | 45.56912 | 39064 ft | 530 kts | 112° |
| 2026-05-08 15:24 | 27.48183 | 45.65110 | 39065 ft | 532 kts | 113° |
| 2026-05-08 15:25 | 27.46598 | 45.73324 | 39045 ft | 527 kts | 113° |
| 2026-05-08 15:25 | 27.45031 | 45.81429 | 39042 ft | 528 kts | 113° |
| 2026-05-08 15:26 | 27.43462 | 45.89607 | 39042 ft | 529 kts | 112° |
| 2026-05-08 15:26 | 27.41896 | 45.97796 | 39030 ft | 528 kts | 112° |
| 2026-05-08 15:27 | 27.40338 | 46.05927 | 39029 ft | 528 kts | 112° |
| 2026-05-08 15:27 | 27.38773 | 46.14050 | 39018 ft | 529 kts | 112° |
| 2026-05-08 15:28 | 27.37208 | 46.22156 | 39016 ft | 527 kts | 112° |
| 2026-05-08 15:28 | 27.35626 | 46.30313 | 39011 ft | 528 kts | 112° |
| 2026-05-08 15:29 | 27.34148 | 46.38483 | 39008 ft | 530 kts | 110° |
| 2026-05-08 15:29 | 27.32744 | 46.46687 | 39004 ft | 532 kts | 110° |
| 2026-05-08 15:30 | 27.31302 | 46.55002 | 39000 ft | 535 kts | 110° |
| 2026-05-08 15:30 | 27.29875 | 46.63192 | 38984 ft | 529 kts | 110° |
| 2026-05-08 15:31 | 27.28406 | 46.71394 | 38982 ft | 530 kts | 111° |
| 2026-05-08 15:31 | 27.26946 | 46.79452 | 38980 ft | 529 kts | 111° |
| 2026-05-08 15:32 | 27.25479 | 46.87657 | 38967 ft | 531 kts | 111° |
| 2026-05-08 15:32 | 27.24013 | 46.95893 | 38948 ft | 530 kts | 111° |
| 2026-05-08 15:33 | 27.22556 | 47.04054 | 38945 ft | 531 kts | 110° |
| 2026-05-08 15:33 | 27.21089 | 47.12242 | 38937 ft | 532 kts | 110° |
| 2026-05-08 15:34 | 27.19610 | 47.20459 | 38932 ft | 532 kts | 110° |
| 2026-05-08 15:34 | 27.18136 | 47.28628 | 38927 ft | 533 kts | 110° |
| 2026-05-08 15:35 | 27.16650 | 47.36849 | 38933 ft | 530 kts | 110° |
| 2026-05-08 15:35 | 27.15155 | 47.45065 | 38938 ft | 532 kts | 110° |
| 2026-05-08 15:36 | 27.13909 | 47.51897 | 38933 ft | 531 kts | 110° |
| 2026-05-08 15:36 | 27.12153 | 47.61457 | 38926 ft | 533 kts | 110° |
| 2026-05-08 15:37 | 27.10626 | 47.69656 | 38924 ft | 530 kts | 111° |
| 2026-05-08 15:37 | 27.09064 | 47.77872 | 38919 ft | 530 kts | 111° |
| 2026-05-08 15:38 | 27.07535 | 47.86020 | 38915 ft | 529 kts | 110° |
| 2026-05-08 15:38 | 27.06022 | 47.94115 | 38909 ft | 528 kts | 110° |
| 2026-05-08 15:39 | 27.04375 | 48.02235 | 38915 ft | 526 kts | 112° |
| 2026-05-08 15:39 | 27.02577 | 48.10200 | 38914 ft | 524 kts | 112° |
| 2026-05-08 15:40 | 27.00772 | 48.18208 | 38913 ft | 526 kts | 112° |
| 2026-05-08 15:40 | 26.98973 | 48.26255 | 38913 ft | 525 kts | 112° |
| 2026-05-08 15:41 | 26.97193 | 48.34235 | 38898 ft | 525 kts | 112° |
| 2026-05-08 15:41 | 26.95401 | 48.42237 | 38890 ft | 526 kts | 112° |
| 2026-05-08 15:42 | 26.93601 | 48.50260 | 38890 ft | 524 kts | 112° |
| 2026-05-08 15:42 | 26.91805 | 48.58235 | 38887 ft | 525 kts | 112° |
| 2026-05-08 15:43 | 26.90000 | 48.66223 | 38877 ft | 522 kts | 112° |
| 2026-05-08 15:43 | 26.88152 | 48.74223 | 38878 ft | 525 kts | 112° |
| 2026-05-08 15:44 | 26.86562 | 48.82323 | 38875 ft | 530 kts | 109° |
| 2026-05-08 15:44 | 26.85150 | 48.90452 | 38872 ft | 526 kts | 109° |
| 2026-05-08 15:45 | 26.83713 | 48.98547 | 38877 ft | 527 kts | 109° |
| 2026-05-08 15:45 | 26.82243 | 49.06663 | 38875 ft | 526 kts | 109° |
| 2026-05-08 15:46 | 26.80769 | 49.14740 | 38875 ft | 525 kts | 109° |
| 2026-05-08 15:46 | 26.79276 | 49.22884 | 38873 ft | 527 kts | 109° |
| 2026-05-08 15:47 | 26.77796 | 49.30951 | 38873 ft | 525 kts | 109° |
| 2026-05-08 15:47 | 26.76255 | 49.38994 | 38874 ft | 520 kts | 112° |
| 2026-05-08 15:48 | 26.72886 | 49.50542 | 38865 ft | 515 kts | 117° |
| 2026-05-08 15:49 | 26.70549 | 49.58147 | 38857 ft | 512 kts | 116° |
| 2026-05-08 15:49 | 26.69431 | 49.61862 | 38611 ft | 500 kts | 116° |
| 2026-05-08 15:49 | 26.68328 | 49.65546 | 37571 ft | 493 kts | 116° |
| 2026-05-08 15:49 | 26.67237 | 49.69153 | 36525 ft | 484 kts | 116° |
| 2026-05-08 15:50 | 26.66158 | 49.72700 | 35514 ft | 476 kts | 116° |
| 2026-05-08 15:50 | 26.65083 | 49.76239 | 34410 ft | 470 kts | 116° |
| 2026-05-08 15:50 | 26.64046 | 49.79668 | 33419 ft | 462 kts | 116° |
| 2026-05-08 15:50 | 26.63020 | 49.83069 | 32415 ft | 457 kts | 116° |
| 2026-05-08 15:51 | 26.62010 | 49.86424 | 31512 ft | 450 kts | 116° |
| 2026-05-08 15:51 | 26.61016 | 49.89728 | 30733 ft | 440 kts | 116° |
| 2026-05-08 15:51 | 26.60035 | 49.92983 | 29901 ft | 432 kts | 116° |
| 2026-05-08 15:51 | 26.59078 | 49.96156 | 29062 ft | 425 kts | 116° |
| 2026-05-08 15:52 | 26.58132 | 49.99267 | 28250 ft | 418 kts | 116° |
| 2026-05-08 15:52 | 26.57186 | 50.02364 | 27363 ft | 414 kts | 115° |
| 2026-05-08 15:52 | 26.56260 | 50.05403 | 26501 ft | 409 kts | 115° |
| 2026-05-08 15:52 | 26.55353 | 50.08398 | 25684 ft | 404 kts | 115° |
| 2026-05-08 15:53 | 26.54448 | 50.11389 | 24833 ft | 399 kts | 114° |
| 2026-05-08 15:53 | 26.53560 | 50.14316 | 23980 ft | 395 kts | 114° |
| 2026-05-08 15:53 | 26.52673 | 50.17236 | 23165 ft | 390 kts | 113° |
| 2026-05-08 15:53 | 26.51815 | 50.20062 | 22313 ft | 386 kts | 113° |
| 2026-05-08 15:54 | 26.50943 | 50.22930 | 21513 ft | 381 kts | 113° |
| 2026-05-08 15:54 | 26.50098 | 50.25712 | 20742 ft | 375 kts | 113° |
| 2026-05-08 15:54 | 26.49257 | 50.28469 | 19962 ft | 370 kts | 112° |
| 2026-05-08 15:54 | 26.48425 | 50.31200 | 19203 ft | 364 kts | 112° |
| 2026-05-08 15:55 | 26.47611 | 50.33867 | 18435 ft | 359 kts | 112° |
| 2026-05-08 15:55 | 26.47054 | 50.39315 | 16906 ft | 356 kts | 81° |
| 2026-05-08 15:55 | 26.47764 | 50.41962 | 16183 ft | 353 kts | 69° |
| 2026-05-08 15:56 | 26.48711 | 50.44465 | 15477 ft | 347 kts | 67° |
| 2026-05-08 15:56 | 26.49670 | 50.46921 | 14771 ft | 342 kts | 68° |
| 2026-05-08 15:56 | 26.50599 | 50.49367 | 14076 ft | 336 kts | 68° |
| 2026-05-08 15:56 | 26.51494 | 50.51772 | 13461 ft | 328 kts | 68° |
| 2026-05-08 15:57 | 26.52355 | 50.54110 | 12833 ft | 321 kts | 68° |
| 2026-05-08 15:57 | 26.53191 | 50.56388 | 12215 ft | 315 kts | 68° |
| 2026-05-08 15:57 | 26.54015 | 50.58640 | 11593 ft | 309 kts | 69° |
| 2026-05-08 15:57 | 26.54526 | 50.60945 | 10909 ft | 305 kts | 87° |
| 2026-05-08 15:58 | 26.54301 | 50.63299 | 10210 ft | 300 kts | 111° |
| 2026-05-08 15:58 | 26.53184 | 50.65220 | 9603 ft | 292 kts | 140° |
| 2026-05-08 15:58 | 26.51569 | 50.66569 | 9001 ft | 286 kts | 143° |
| 2026-05-08 15:58 | 26.50049 | 50.68029 | 8406 ft | 284 kts | 136° |
| 2026-05-08 15:59 | 26.48692 | 50.69599 | 7813 ft | 281 kts | 132° |
| 2026-05-08 15:59 | 26.47377 | 50.71244 | 7206 ft | 279 kts | 131° |
| 2026-05-08 15:59 | 26.46092 | 50.72889 | 6621 ft | 276 kts | 132° |
| 2026-05-08 15:59 | 26.44578 | 50.74128 | 6132 ft | 268 kts | 161° |
| 2026-05-08 16:00 | 26.42746 | 50.74322 | 5636 ft | 260 kts | 193° |
| 2026-05-08 16:00 | 26.41033 | 50.73700 | 5151 ft | 253 kts | 205° |
| 2026-05-08 16:00 | 26.39452 | 50.72858 | 4660 ft | 247 kts | 210° |
| 2026-05-08 16:00 | 26.38402 | 50.72377 | 4325 ft | 246 kts | 193° |
| 2026-05-08 16:01 | 26.36213 | 50.72786 | 3672 ft | 239 kts | 141° |
| 2026-05-08 16:01 | 26.35054 | 50.74074 | 3204 ft | 239 kts | 123° |
| 2026-05-08 16:01 | 26.34032 | 50.75642 | 2827 ft | 251 kts | 119° |
| 2026-05-08 16:01 | 26.33066 | 50.77249 | 2471 ft | 250 kts | 117° |
| 2026-05-08 16:02 | 26.32116 | 50.78876 | 2159 ft | 249 kts | 117° |
| 2026-05-08 16:02 | 26.31170 | 50.80510 | 2035 ft | 246 kts | 117° |
| 2026-05-08 16:02 | 26.30252 | 50.82099 | 2006 ft | 244 kts | 116° |
| 2026-05-08 16:02 | 26.29316 | 50.83724 | 1995 ft | 249 kts | 116° |
| 2026-05-08 16:03 | 26.28366 | 50.85372 | 1998 ft | 252 kts | 117° |
| 2026-05-08 16:03 | 26.27411 | 50.87024 | 1993 ft | 253 kts | 117° |
| 2026-05-08 16:03 | 26.26450 | 50.88689 | 1991 ft | 253 kts | 117° |
| 2026-05-08 16:03 | 26.25486 | 50.90346 | 1922 ft | 256 kts | 117° |
| 2026-05-08 16:04 | 26.24498 | 50.92041 | 1565 ft | 259 kts | 117° |
| 2026-05-08 16:04 | 26.23195 | 50.93395 | 1188 ft | 257 kts | 152° |
| 2026-05-08 16:04 | 26.21505 | 50.93731 | 816 ft | 237 kts | 192° |
| 2026-05-08 16:04 | 26.20067 | 50.93118 | 709 ft | 205 kts | 212° |
| 2026-05-08 16:05 | 26.18860 | 50.92406 | 1084 ft | 190 kts | 213° |
| 2026-05-08 16:05 | 26.17640 | 50.91690 | 1386 ft | 203 kts | 213° |
| 2026-05-08 16:05 | 26.16321 | 50.90912 | 1449 ft | 220 kts | 213° |
| 2026-05-08 16:05 | 26.15016 | 50.90150 | 1497 ft | 202 kts | 213° |
| 2026-05-08 16:06 | 26.13757 | 50.89413 | 1474 ft | 207 kts | 213° |
| 2026-05-08 16:06 | 26.12549 | 50.88594 | 1467 ft | 196 kts | 233° |
| 2026-05-08 16:06 | 26.12042 | 50.87289 | 1487 ft | 175 kts | 281° |
| 2026-05-08 16:06 | 26.12506 | 50.86166 | 1491 ft | 155 kts | 328° |
| 2026-05-08 16:07 | 26.13484 | 50.85653 | 1495 ft | 153 kts | 337° |
| 2026-05-08 16:07 | 26.14335 | 50.84925 | 1494 ft | 156 kts | 320° |
| 2026-05-08 16:07 | 26.15047 | 50.83989 | 1498 ft | 161 kts | 314° |
| 2026-05-08 16:07 | 26.15704 | 50.82966 | 1492 ft | 159 kts | 311° |
| 2026-05-08 16:08 | 26.16314 | 50.81940 | 1494 ft | 160 kts | 310° |
| 2026-05-08 16:08 | 26.16921 | 50.80896 | 1492 ft | 158 kts | 310° |
| 2026-05-08 16:08 | 26.17525 | 50.79852 | 1493 ft | 159 kts | 310° |
| 2026-05-08 16:08 | 26.18133 | 50.78807 | 1494 ft | 161 kts | 310° |
| 2026-05-08 16:09 | 26.18740 | 50.77759 | 1497 ft | 161 kts | 310° |
| 2026-05-08 16:09 | 26.19144 | 50.77061 | 1492 ft | 159 kts | 310° |
| 2026-05-08 16:09 | 26.19956 | 50.75662 | 1493 ft | 160 kts | 310° |
| 2026-05-08 16:09 | 26.20568 | 50.74607 | 1493 ft | 160 kts | 310° |
| 2026-05-08 16:10 | 26.21166 | 50.73575 | 1489 ft | 158 kts | 310° |
| 2026-05-08 16:10 | 26.21773 | 50.72530 | 1489 ft | 158 kts | 310° |
| 2026-05-08 16:10 | 26.22354 | 50.71526 | 1347 ft | 151 kts | 310° |
| 2026-05-08 16:10 | 26.22911 | 50.70565 | 1162 ft | 141 kts | 309° |
| 2026-05-08 16:11 | 26.23413 | 50.69697 | 997 ft | 134 kts | 309° |
| 2026-05-08 16:11 | 26.23913 | 50.68839 | 820 ft | 127 kts | 308° |
| 2026-05-08 16:11 | 26.24400 | 50.68000 | 677 ft | 127 kts | 307° |
| 2026-05-08 16:11 | 26.24880 | 50.67174 | 521 ft | 127 kts | 306° |
| 2026-05-08 16:12 | 26.25364 | 50.66338 | 368 ft | 127 kts | 306° |
| 2026-05-08 16:12 | 26.25843 | 50.65513 | 189 ft | 126 kts | 305° |
| 2026-05-08 16:12 | 26.26325 | 50.64681 | 33 ft | 126 kts | 304° |
| 2026-05-08 16:12 | 26.26796 | 50.63876 | 14 ft | 118 kts | 301° |
| 2026-05-08 16:13 | 26.27122 | 50.63305 | 14 ft | 54 kts | 303° |
| 2026-05-08 16:13 | 26.27209 | 50.63153 | 14 ft | 0 kts | 301° |
| 2026-05-08 16:13 | 26.27239 | 50.63078 | 14 ft | 21 kts | 286° |
| 2026-05-08 16:13 | 26.27257 | 50.62868 | 14 ft | 23 kts | 269° |
| 2026-05-08 16:14 | 26.27240 | 50.62806 | 14 ft | 5 kts | 199° |
| 2026-05-08 16:14 | 26.27190 | 50.62841 | 14 ft | 15 kts | 124° |
| 2026-05-08 16:14 | 26.27127 | 50.62903 | 14 ft | 9 kts | 181° |
| 2026-05-08 16:14 | 26.27071 | 50.62883 | 14 ft | 4 kts | 202° |
| 2026-05-08 16:15 | 26.27018 | 50.62917 | 14 ft | 16 kts | 127° |
| 2026-05-08 16:15 | 26.26983 | 50.62976 | 14 ft | 0 kts | 122° |
| 2026-05-08 16:15 | 26.26996 | 50.62952 | 14 ft | 14 kts | 122° |
| 2026-05-08 16:15 | 26.27053 | 50.62858 | 14 ft | 0 kts | 133° |
| 2026-05-08 16:16 | 26.27006 | 50.62934 | 14 ft | 15 kts | 122° |
| 2026-05-08 16:16 | 26.26972 | 50.62985 | 14 ft | 8 kts | 155° |
| 2026-05-08 16:16 | 26.26931 | 50.62972 | 14 ft | 4 kts | 209° |
| 2026-05-08 16:16 | 26.26911 | 50.62958 | 14 ft | 2 kts | 212° |
| 2026-05-08 16:17 | 26.26899 | 50.62951 | 14 ft | 1 kts | 213° |
| 2026-05-08 16:17 | 26.26890 | 50.62944 | 14 ft | 0 kts | 213° |
| 2026-05-08 16:17 | 26.26887 | 50.62942 | 14 ft | 0 kts | 213° |